createdAt,value
2023-04-01T00:00:14.603Z,12.23
2023-04-01T00:02:42.777Z,12.38
2023-04-01T00:05:13.862Z,12.30
2023-04-01T00:07:41.840Z,12.49
2023-04-01T00:10:11.818Z,12.58
2023-04-01T00:12:39.726Z,12.48
2023-04-01T00:15:10.559Z,12.44
2023-04-01T00:17:39.454Z,12.37
2023-04-01T00:20:08.928Z,12.26
2023-04-01T00:22:36.547Z,12.33
2023-04-01T00:25:05.564Z,12.27
2023-04-01T00:27:32.928Z,12.24
2023-04-01T00:30:00.459Z,12.36
2023-04-01T00:32:28.265Z,12.32
2023-04-01T00:34:55.676Z,12.36
2023-04-01T00:37:23.873Z,12.07
2023-04-01T00:39:51.530Z,12.21
2023-04-01T00:42:19.222Z,12.30
2023-04-01T00:44:51.141Z,12.33
2023-04-01T00:47:19.605Z,12.41
2023-04-01T00:49:50.033Z,12.30
2023-04-01T00:52:20.648Z,12.29
2023-04-01T00:54:50.650Z,12.19
2023-04-01T00:57:23.042Z,12.17
2023-04-01T00:59:53.672Z,12.08
2023-04-01T01:02:21.586Z,12.17
2023-04-01T01:04:49.156Z,12.09
2023-04-01T01:07:31.868Z,12.10
2023-04-01T01:10:14.430Z,12.26
2023-04-01T01:12:47.725Z,12.28
2023-04-01T01:15:21.525Z,12.20
2023-04-01T01:18:10.657Z,12.42
2023-04-01T01:20:49.609Z,12.17
2023-04-01T01:23:54.833Z,12.41
2023-04-01T01:26:27.297Z,12.37
2023-04-01T01:29:17.020Z,12.17
2023-04-01T01:31:47.416Z,12.18
2023-04-01T01:34:48.507Z,12.22
2023-04-01T01:37:17.984Z,12.09
2023-04-01T01:39:54.208Z,12.18
2023-04-01T01:42:22.373Z,12.10
2023-04-01T01:44:51.292Z,12.22
2023-04-01T01:47:20.860Z,12.39
2023-04-01T01:49:48.469Z,12.34
2023-04-01T01:52:18.163Z,12.24
2023-04-01T01:54:56.627Z,12.24
2023-04-01T01:57:29.652Z,12.30
2023-04-01T02:00:09.359Z,12.21
2023-04-01T02:02:45.419Z,12.41
2023-04-01T02:05:19.748Z,12.36
2023-04-01T02:07:52.158Z,12.20
2023-04-01T02:10:20.946Z,12.36
2023-04-01T02:12:49.203Z,12.31
2023-04-01T02:15:17.640Z,12.33
2023-04-01T02:17:46.984Z,12.23
2023-04-01T02:20:18.815Z,12.26
2023-04-01T02:22:49.941Z,12.23
2023-04-01T02:25:22.049Z,12.14
2023-04-01T02:27:49.779Z,12.12
2023-04-01T02:30:18.407Z,12.13
2023-04-01T02:32:47.107Z,12.24
2023-04-01T02:35:17.188Z,12.03
2023-04-01T02:37:45.425Z,12.13
2023-04-01T02:40:15.448Z,11.97
2023-04-01T02:42:43.200Z,12.09
2023-04-01T02:45:11.537Z,12.09
2023-04-01T02:47:39.387Z,12.05
2023-04-01T02:50:08.330Z,11.91
2023-04-01T02:52:35.950Z,11.91
2023-04-01T02:55:04.276Z,11.97
2023-04-01T02:57:31.946Z,11.94
2023-04-01T02:59:59.364Z,12.03
2023-04-01T03:02:27.849Z,12.07
2023-04-01T03:04:55.362Z,11.83
2023-04-01T03:07:22.774Z,11.79
2023-04-01T03:09:50.679Z,11.93
2023-04-01T03:12:18.099Z,11.69
2023-04-01T03:14:45.863Z,11.71
2023-04-01T03:17:13.567Z,11.67
2023-04-01T03:19:41.028Z,11.60
2023-04-01T03:22:11.021Z,11.73
2023-04-01T03:24:38.723Z,11.65
2023-04-01T03:27:06.109Z,11.56
2023-04-01T03:29:33.534Z,11.64
2023-04-01T03:32:01.496Z,11.68
2023-04-01T03:34:28.938Z,11.54
2023-04-01T03:36:56.568Z,11.58
2023-04-01T03:39:24.335Z,11.63
2023-04-01T03:41:51.908Z,11.59
2023-04-01T03:44:19.306Z,11.54
2023-04-01T03:46:47.290Z,11.28
2023-04-01T03:49:16.035Z,11.30
2023-04-01T03:51:44.069Z,11.12
2023-04-01T03:54:12.314Z,11.31
2023-04-01T03:56:39.994Z,11.12
2023-04-01T03:59:08.464Z,11.27
2023-04-01T04:01:36.522Z,11.19
2023-04-01T04:04:04.570Z,11.06
2023-04-01T04:06:32.095Z,11.11
2023-04-01T04:08:59.531Z,11.09
2023-04-01T04:11:27.705Z,11.05
2023-04-01T04:13:56.514Z,10.94
2023-04-01T04:16:24.717Z,10.93
2023-04-01T04:18:53.486Z,10.90
2023-04-01T04:21:20.900Z,10.81
2023-04-01T04:23:48.330Z,10.78
2023-04-01T04:26:16.478Z,10.74
2023-04-01T04:28:45.721Z,10.86
2023-04-01T04:31:13.701Z,10.89
2023-04-01T04:33:42.373Z,10.81
2023-04-01T04:36:10.191Z,10.85
2023-04-01T04:38:37.630Z,10.83
2023-04-01T04:41:10.758Z,10.82
2023-04-01T04:43:38.438Z,10.82
2023-04-01T04:46:08.534Z,10.94
2023-04-01T04:48:36.428Z,10.76
2023-04-01T04:51:04.260Z,10.93
2023-04-01T04:53:32.251Z,10.57
2023-04-01T04:55:59.646Z,10.55
2023-04-01T04:58:27.733Z,10.74
2023-04-01T05:00:55.887Z,10.79
2023-04-01T05:03:23.846Z,10.94
2023-04-01T05:05:53.289Z,10.94
2023-04-01T05:08:21.169Z,11.00
2023-04-01T05:10:48.714Z,11.11
2023-04-01T05:13:16.289Z,11.55
2023-04-01T05:15:46.624Z,11.73
2023-04-01T05:18:14.232Z,11.88
2023-04-01T05:20:47.738Z,12.01
2023-04-01T05:23:15.732Z,12.13
2023-04-01T05:25:43.431Z,11.96
2023-04-01T05:28:10.846Z,11.97
2023-04-01T05:30:42.075Z,12.25
2023-04-01T05:33:11.042Z,12.46
2023-04-01T05:35:38.824Z,12.26
2023-04-01T05:38:08.142Z,12.08
2023-04-01T05:40:36.479Z,11.88
2023-04-01T05:43:04.700Z,11.99
2023-04-01T05:45:32.445Z,12.29
2023-04-01T05:48:07.471Z,12.34
2023-04-01T05:50:35.509Z,12.01
2023-04-01T05:53:03.497Z,11.67
2023-04-01T05:55:30.999Z,11.97
2023-04-01T05:57:59.046Z,12.13
2023-04-01T06:00:28.099Z,12.18
2023-04-01T06:02:56.321Z,12.17
2023-04-01T06:05:26.407Z,11.57
2023-04-01T06:08:11.176Z,11.63
2023-04-01T06:10:54.428Z,12.01
2023-04-01T06:13:27.637Z,11.95
2023-04-01T06:16:08.887Z,11.98
2023-04-01T06:18:39.380Z,11.67
2023-04-01T06:21:33.168Z,11.56
2023-04-01T06:24:04.005Z,11.61
2023-04-01T06:26:38.907Z,11.57
2023-04-01T06:29:19.912Z,11.90
2023-04-01T06:31:54.024Z,11.79
2023-04-01T06:34:33.540Z,12.27
2023-04-01T06:37:36.461Z,12.33
2023-04-01T06:40:07.437Z,12.13
2023-04-01T06:42:50.744Z,11.74
2023-04-01T06:45:45.688Z,11.87
2023-04-01T06:49:23.603Z,12.11
2023-04-01T06:52:12.558Z,11.79
2023-04-01T06:55:08.773Z,12.31
2023-04-01T06:57:43.673Z,12.43
2023-04-01T07:00:25.635Z,12.57
2023-04-01T07:03:04.925Z,12.01
2023-04-01T07:05:35.510Z,11.52
2023-04-01T07:08:07.394Z,12.16
2023-04-01T07:10:52.776Z,12.20
2023-04-01T07:13:32.012Z,12.06
2023-04-01T07:16:05.520Z,12.40
2023-04-01T07:18:40.401Z,12.62
2023-04-01T07:21:16.008Z,12.51
2023-04-01T07:23:46.070Z,12.54
2023-04-01T07:26:22.348Z,12.97
2023-04-01T07:28:54.119Z,12.83
2023-04-01T07:31:44.409Z,12.44
2023-04-01T07:34:25.468Z,12.82
2023-04-01T07:37:14.416Z,12.97
2023-04-01T07:39:42.263Z,12.94
2023-04-01T07:42:40.010Z,13.31
2023-04-01T07:45:14.049Z,13.22
2023-04-01T07:48:21.034Z,13.03
2023-04-01T07:51:08.748Z,13.44
2023-04-01T07:54:10.994Z,13.06
2023-04-01T07:56:44.345Z,13.30
2023-04-01T07:59:12.704Z,13.44
2023-04-01T08:01:57.088Z,13.82
2023-04-01T08:04:30.637Z,13.61
2023-04-01T08:07:18.389Z,13.58
2023-04-01T08:09:59.379Z,13.19
2023-04-01T08:13:05.461Z,13.24
2023-04-01T08:15:48.416Z,13.42
2023-04-01T08:18:28.285Z,13.40
2023-04-01T08:20:59.641Z,13.20
2023-04-01T08:23:29.702Z,13.08
2023-04-01T08:26:04.356Z,13.47
2023-04-01T08:28:40.913Z,13.25
2023-04-01T08:31:24.094Z,13.46
2023-04-01T08:33:54.486Z,13.54
2023-04-01T08:36:32.757Z,13.49
2023-04-01T08:39:16.407Z,13.65
2023-04-01T08:42:09.799Z,13.74
2023-04-01T08:45:06.436Z,13.63
2023-04-01T08:47:38.192Z,13.73
2023-04-01T08:50:22.908Z,14.18
2023-04-01T08:53:07.613Z,14.23
2023-04-01T08:56:02.455Z,13.91
2023-04-01T08:58:58.211Z,13.83
2023-04-01T09:01:40.790Z,13.63
2023-04-01T09:04:21.853Z,13.74
2023-04-01T09:06:57.374Z,13.49
2023-04-01T09:09:31.108Z,13.82
2023-04-01T09:12:21.036Z,14.31
2023-04-01T09:15:04.247Z,14.14
2023-04-01T09:18:01.170Z,14.34
2023-04-01T09:20:33.455Z,14.37
2023-04-01T09:23:26.493Z,14.43
2023-04-01T09:25:56.799Z,14.23
2023-04-01T09:28:45.738Z,14.52
2023-04-01T09:31:38.392Z,14.34
2023-04-01T09:34:31.677Z,14.16
2023-04-01T09:37:11.268Z,14.30
2023-04-01T09:39:46.122Z,14.06
2023-04-01T09:42:14.407Z,13.91
2023-04-01T09:44:55.644Z,14.26
2023-04-01T09:47:48.233Z,14.16
2023-04-01T09:50:33.034Z,13.84
2023-04-01T09:53:25.903Z,13.32
2023-04-01T09:56:22.005Z,13.66
2023-04-01T09:59:08.004Z,13.31
2023-04-01T10:02:05.711Z,13.68
2023-04-01T10:04:53.320Z,13.02
2023-04-01T10:07:44.501Z,13.68
2023-04-01T10:10:34.719Z,13.68
2023-04-01T10:13:17.632Z,13.60
2023-04-01T10:16:23.741Z,13.34
2023-04-01T10:19:31.767Z,13.71
2023-04-01T10:21:59.674Z,13.37
2023-04-01T10:24:51.311Z,13.79
2023-04-01T10:27:40.322Z,13.82
2023-04-01T10:30:38.579Z,13.94
2023-04-01T10:33:28.475Z,13.78
2023-04-01T10:36:02.065Z,14.09
2023-04-01T10:38:46.685Z,14.22
2023-04-01T10:41:31.388Z,13.92
2023-04-01T10:44:08.501Z,14.02
2023-04-01T10:46:49.093Z,14.14
2023-04-01T10:49:24.048Z,14.54
2023-04-01T10:52:20.389Z,14.30
2023-04-01T10:55:20.189Z,14.39
2023-04-01T10:58:13.538Z,14.71
2023-04-01T11:00:50.301Z,14.56
2023-04-01T11:03:55.997Z,14.59
2023-04-01T11:06:58.568Z,14.38
2023-04-01T11:09:50.977Z,14.64
2023-04-01T11:13:00.033Z,14.82
2023-04-01T11:15:40.477Z,14.81
2023-04-01T11:18:46.078Z,15.02
2023-04-01T11:21:45.951Z,14.88
2023-04-01T11:24:16.975Z,14.92
2023-04-01T11:26:51.278Z,15.40
2023-04-01T11:29:57.017Z,15.36
2023-04-01T11:32:56.207Z,15.64
2023-04-01T11:35:27.350Z,15.31
2023-04-01T11:38:31.931Z,15.86
2023-04-01T11:41:19.931Z,15.50
2023-04-01T11:44:04.534Z,15.27
2023-04-01T11:47:09.839Z,15.58
2023-04-01T11:49:48.832Z,15.54
2023-04-01T11:52:19.707Z,15.74
2023-04-01T11:55:06.137Z,15.58
2023-04-01T11:57:51.917Z,15.64
2023-04-01T12:00:34.704Z,15.57
2023-04-01T12:03:27.472Z,15.48
2023-04-01T12:06:31.568Z,15.92
2023-04-01T12:09:37.509Z,16.14
2023-04-01T12:12:12.185Z,15.65
2023-04-01T12:14:55.173Z,15.11
2023-04-01T12:17:25.985Z,15.27
2023-04-01T12:20:03.525Z,15.61
2023-04-01T12:22:44.474Z,15.92
2023-04-01T12:25:38.245Z,15.48
2023-04-01T12:28:31.105Z,15.82
2023-04-01T12:31:14.027Z,15.61
2023-04-01T12:33:53.825Z,15.84
2023-04-01T12:36:46.402Z,15.93
2023-04-01T12:39:51.456Z,15.45
2023-04-01T12:42:33.917Z,15.38
2023-04-01T12:45:20.436Z,15.52
2023-04-01T12:47:54.177Z,15.35
2023-04-01T12:50:49.344Z,14.76
2023-04-01T12:53:22.366Z,14.79
2023-04-01T12:55:53.726Z,15.12
2023-04-01T12:58:49.304Z,15.05
2023-04-01T13:01:58.232Z,15.42
2023-04-01T13:04:44.398Z,15.78
2023-04-01T13:07:17.651Z,15.48
2023-04-01T13:09:58.710Z,15.46
2023-04-01T13:12:43.356Z,16.05
2023-04-01T13:15:29.358Z,16.24
2023-04-01T13:18:27.836Z,16.14
2023-04-01T13:21:14.788Z,15.85
2023-04-01T13:24:04.126Z,16.24
2023-04-01T13:26:43.366Z,15.83
2023-04-01T13:29:18.701Z,16.09
2023-04-01T13:32:33.300Z,16.00
2023-04-01T13:35:26.526Z,16.12
2023-04-01T13:38:05.731Z,16.22
2023-04-01T13:41:14.766Z,16.17
2023-04-01T13:43:52.119Z,16.01
2023-04-01T13:46:34.623Z,15.52
2023-04-01T13:49:21.164Z,15.81
2023-04-01T13:52:06.135Z,15.53
2023-04-01T13:54:54.654Z,15.47
2023-04-01T13:57:38.658Z,15.00
2023-04-01T14:00:41.084Z,14.78
2023-04-01T14:03:17.470Z,14.75
2023-04-01T14:06:06.483Z,14.78
2023-04-01T14:08:51.015Z,14.26
2023-04-01T14:11:31.524Z,14.27
2023-04-01T14:14:17.369Z,14.39
2023-04-01T14:16:59.716Z,14.31
2023-04-01T14:19:38.189Z,14.53
2023-04-01T14:22:27.515Z,14.28
2023-04-01T14:25:16.027Z,14.40
2023-04-01T14:28:05.101Z,14.12
2023-04-01T14:30:36.594Z,14.69
2023-04-01T14:33:24.158Z,14.81
2023-04-01T14:36:36.342Z,15.28
2023-04-01T14:39:31.761Z,15.06
2023-04-01T14:42:21.957Z,14.70
2023-04-01T14:45:11.724Z,15.30
2023-04-01T14:47:59.985Z,15.40
2023-04-01T14:50:40.929Z,15.78
2023-04-01T14:53:08.729Z,15.40
2023-04-01T14:55:49.403Z,15.58
2023-04-01T14:58:19.167Z,15.53
2023-04-01T15:00:58.587Z,15.69
2023-04-01T15:04:01.540Z,15.36
2023-04-01T15:06:41.623Z,15.32
2023-04-01T15:09:15.553Z,15.58
2023-04-01T15:11:54.773Z,15.77
2023-04-01T15:14:39.616Z,15.47
2023-04-01T15:17:26.322Z,15.49
2023-04-01T15:20:04.140Z,14.83
2023-04-01T15:23:02.806Z,15.29
2023-04-01T15:25:50.995Z,14.75
2023-04-01T15:28:21.452Z,15.12
2023-04-01T15:30:58.429Z,14.57
2023-04-01T15:33:29.028Z,14.94
2023-04-01T15:36:27.563Z,15.12
2023-04-01T15:39:03.645Z,15.18
2023-04-01T15:41:49.637Z,15.39
2023-04-01T15:44:43.409Z,15.02
2023-04-01T15:47:26.636Z,15.09
2023-04-01T15:50:17.182Z,15.33
2023-04-01T15:52:59.844Z,15.19
2023-04-01T15:55:52.441Z,15.02
2023-04-01T15:58:36.261Z,15.51
2023-04-01T16:01:06.625Z,15.19
2023-04-01T16:03:37.319Z,15.03
2023-04-01T16:06:23.513Z,15.32
2023-04-01T16:09:17.608Z,15.46
2023-04-01T16:11:55.755Z,15.43
2023-04-01T16:14:32.463Z,15.65
2023-04-01T16:17:10.241Z,15.30
2023-04-01T16:19:43.929Z,15.79
2023-04-01T16:22:32.922Z,15.69
2023-04-01T16:25:22.547Z,15.48
2023-04-01T16:28:13.929Z,15.36
2023-04-01T16:31:28.273Z,15.41
2023-04-01T16:34:05.550Z,15.40
2023-04-01T16:36:55.266Z,15.64
2023-04-01T16:39:47.522Z,15.32
2023-04-01T16:42:34.160Z,15.70
2023-04-01T16:45:07.984Z,15.85
2023-04-01T16:47:51.596Z,15.77
2023-04-01T16:50:24.705Z,15.90
2023-04-01T16:53:04.448Z,15.51
2023-04-01T16:55:54.363Z,15.53
2023-04-01T16:58:26.778Z,15.48
2023-04-01T17:01:08.285Z,15.66
2023-04-01T17:03:38.567Z,15.69
2023-04-01T17:06:12.356Z,15.87
2023-04-01T17:08:42.428Z,15.72
2023-04-01T17:11:20.539Z,15.79
2023-04-01T17:13:56.359Z,15.81
2023-04-01T17:16:43.505Z,15.53
2023-04-01T17:19:26.479Z,15.64
2023-04-01T17:22:35.168Z,15.45
2023-04-01T17:25:22.230Z,15.43
2023-04-01T17:27:50.717Z,15.36
2023-04-01T17:30:42.722Z,15.33
2023-04-01T17:33:37.389Z,15.16
2023-04-01T17:36:36.984Z,15.12
2023-04-01T17:39:21.261Z,15.03
2023-04-01T17:41:59.156Z,14.88
2023-04-01T17:45:08.966Z,14.89
2023-04-01T17:47:59.812Z,14.85
2023-04-01T17:51:07.822Z,14.70
2023-04-01T17:53:53.147Z,14.88
2023-04-01T17:56:51.332Z,14.82
2023-04-01T17:59:41.537Z,14.67
2023-04-01T18:02:31.053Z,14.63
2023-04-01T18:05:25.216Z,14.36
2023-04-01T18:08:07.363Z,14.45
2023-04-01T18:10:46.362Z,14.11
2023-04-01T18:13:45.081Z,14.25
2023-04-01T18:16:39.827Z,14.05
2023-04-01T18:19:15.758Z,14.16
2023-04-01T18:21:48.501Z,14.25
2023-04-01T18:24:37.768Z,14.16
2023-04-01T18:27:19.790Z,14.06
2023-04-01T18:30:12.915Z,14.12
2023-04-01T18:32:58.419Z,14.01
2023-04-01T18:36:00.456Z,13.97
2023-04-01T18:38:31.269Z,13.96
2023-04-01T18:41:22.715Z,13.65
2023-04-01T18:44:01.598Z,13.71
2023-04-01T18:46:59.209Z,13.75
2023-04-01T18:49:53.753Z,13.67
2023-04-01T18:52:36.368Z,13.58
2023-04-01T18:55:05.277Z,13.55
2023-04-01T18:57:44.027Z,13.63
2023-04-01T19:00:27.444Z,13.37
2023-04-01T19:03:04.444Z,13.33
2023-04-01T19:05:36.554Z,13.40
2023-04-01T19:08:21.937Z,13.30
2023-04-01T19:11:12.523Z,13.27
2023-04-01T19:14:06.325Z,13.17
2023-04-01T19:16:43.182Z,13.24
2023-04-01T19:19:32.142Z,13.17
2023-04-01T19:22:56.387Z,13.13
2023-04-01T19:26:01.711Z,13.00
2023-04-01T19:28:52.371Z,13.00
2023-04-01T19:31:58.008Z,12.69
2023-04-01T19:34:29.679Z,12.97
2023-04-01T19:37:05.198Z,12.50
2023-04-01T19:39:40.342Z,12.61
2023-04-01T19:42:31.383Z,12.54
2023-04-01T19:45:27.191Z,12.70
2023-04-01T19:48:16.038Z,12.61
2023-04-01T19:51:22.052Z,12.71
2023-04-01T19:54:03.443Z,12.58
2023-04-01T19:57:01.984Z,12.42
2023-04-01T19:59:41.811Z,12.49
2023-04-01T20:02:12.701Z,12.36
2023-04-01T20:04:49.224Z,12.34
2023-04-01T20:07:25.511Z,12.34
2023-04-01T20:10:16.249Z,12.42
2023-04-01T20:13:26.976Z,12.28
2023-04-01T20:16:08.093Z,12.11
2023-04-01T20:18:43.356Z,11.81
2023-04-01T20:21:17.384Z,11.99
2023-04-01T20:23:52.048Z,12.00
2023-04-01T20:26:28.180Z,11.88
2023-04-01T20:29:25.010Z,11.92
2023-04-01T20:32:05.145Z,12.09
2023-04-01T20:35:01.601Z,12.06
2023-04-01T20:37:43.170Z,11.97
2023-04-01T20:41:04.185Z,11.99
2023-04-01T20:43:42.662Z,11.92
2023-04-01T20:46:13.448Z,11.90
2023-04-01T20:49:13.579Z,11.85
2023-04-01T20:51:48.935Z,11.95
2023-04-01T20:54:23.984Z,11.74
2023-04-01T20:57:03.824Z,11.71
2023-04-01T20:59:59.515Z,11.55
2023-04-01T21:02:58.353Z,11.42
2023-04-01T21:06:03.784Z,11.40
2023-04-01T21:08:37.471Z,11.41
2023-04-01T21:11:21.653Z,11.43
2023-04-01T21:14:01.208Z,11.31
2023-04-01T21:16:48.541Z,11.12
2023-04-01T21:19:19.037Z,10.95
2023-04-01T21:22:05.355Z,10.85
2023-04-01T21:25:12.948Z,10.91
2023-04-01T21:27:49.035Z,11.10
2023-04-01T21:30:24.443Z,10.89
2023-04-01T21:33:01.410Z,10.52
2023-04-01T21:36:02.017Z,10.99
2023-04-01T21:39:03.649Z,10.71
2023-04-01T21:41:55.544Z,10.81
2023-04-01T21:44:47.844Z,10.89
2023-04-01T21:47:36.845Z,10.58
2023-04-01T21:50:41.881Z,10.94
2023-04-01T21:53:50.719Z,11.29
2023-04-01T21:56:31.089Z,11.45
2023-04-01T21:59:04.230Z,11.45
2023-04-01T22:01:53.930Z,11.31
2023-04-01T22:05:17.357Z,11.43
2023-04-01T22:07:50.853Z,11.33
2023-04-01T22:10:46.985Z,11.38
2023-04-01T22:13:21.944Z,11.24
2023-04-01T22:16:18.258Z,11.25
2023-04-01T22:19:01.089Z,11.17
2023-04-01T22:22:02.130Z,11.07
2023-04-01T22:24:42.185Z,11.13
2023-04-01T22:27:22.902Z,10.98
2023-04-01T22:29:50.218Z,10.95
2023-04-01T22:32:23.878Z,10.73
2023-04-01T22:35:02.982Z,10.50
2023-04-01T22:37:59.989Z,10.64
2023-04-01T22:40:38.488Z,10.77
2023-04-01T22:43:13.747Z,10.56
2023-04-01T22:45:56.770Z,10.80
2023-04-01T22:48:33.936Z,10.62
2023-04-01T22:51:16.438Z,10.49
2023-04-01T22:54:07.179Z,10.55
2023-04-01T22:56:40.967Z,10.58
2023-04-01T22:59:11.494Z,10.49
2023-04-01T23:01:47.632Z,10.48
2023-04-01T23:04:18.543Z,10.69
2023-04-01T23:06:50.650Z,10.74
2023-04-01T23:09:21.130Z,10.59
2023-04-01T23:11:58.970Z,10.60
2023-04-01T23:14:34.648Z,10.41
2023-04-01T23:17:17.290Z,10.11
2023-04-01T23:20:01.102Z,10.27
2023-04-01T23:22:28.404Z,10.56
2023-04-01T23:25:26.255Z,10.45
2023-04-01T23:28:18.918Z,10.22
2023-04-01T23:30:48.412Z,10.14
2023-04-01T23:33:27.948Z,9.99
2023-04-01T23:36:07.725Z,10.03
2023-04-01T23:38:37.691Z,9.70
2023-04-01T23:41:06.496Z,9.80
2023-04-01T23:43:39.593Z,9.83
2023-04-01T23:46:08.652Z,9.96
2023-04-01T23:48:40.261Z,9.87
2023-04-01T23:51:22.461Z,9.50
2023-04-01T23:54:02.808Z,9.70
2023-04-01T23:56:43.701Z,9.81
2023-04-01T23:59:25.474Z,10.03
